Time;durP1;ratioP1;P1;durP2;ratioP2;P2;SDS_P1;SDS_P2;PMS_P1;PMS_P2;Temp;Humidity;BMP_temperature;BMP_pressure;BME280_temperature;BME280_humidity;BME280_pressure;Samples;Min_cycle;Max_cycle;Signal;HPM_P1;HPM_P2
2022/04/23 00:01:13;;;;;;;23.35;15.18;;;8.20;1.00;;;;;;6274804;22;20199;-93
2022/04/23 00:03:52;;;;;;;21.95;14.80;;;8.10;1.00;;;;;;6268887;22;20204;-92
2022/04/23 00:36:14;;;;;;;25.92;17.10;;;7.90;1.00;;;;;;6191803;22;20302;-92
2022/04/23 00:39:05;;;;;;;24.38;16.02;;;7.90;1.00;;;;;;6227206;22;20272;-91
2022/04/23 00:41:57;;;;;;;23.23;15.90;;;7.90;1.00;;;;;;6230449;22;20216;-91
2022/04/23 00:47:24;;;;;;;25.00;17.15;;;7.80;1.00;;;;;;6202709;22;20209;-91
2022/04/23 00:50:18;;;;;;;22.90;15.10;;;7.80;1.00;;;;;;6206121;22;20404;-92
2022/04/23 00:52:52;;;;;;;23.17;15.93;;;7.80;1.00;;;;;;6208964;22;20204;-91
2022/04/23 01:01:25;;;;;;;;;;;;;;;;;;;;;
2022/04/23 01:03:57;;;;;;;23.30;15.77;;;7.70;1.00;;;;;;6201680;22;43384;-91
2022/04/23 01:07:13;;;;;;;24.52;17.88;;;7.70;1.00;;;;;;6228864;22;20232;-93
2022/04/23 01:09:45;;;;;;;24.02;16.90;;;7.70;1.00;;;;;;6171272;22;20196;-92
2022/04/23 01:12:28;;;;;;;25.20;17.83;;;7.60;1.00;;;;;;6208187;22;20222;-93
2022/04/23 01:15:06;;;;;;;26.23;17.73;;;7.60;1.00;;;;;;6167205;22;20232;-91
2022/04/23 01:17:43;;;;;;;24.88;17.38;;;7.60;1.00;;;;;;6222717;22;20678;-93
2022/04/23 01:20:45;;;;;;;26.25;17.20;;;7.60;1.00;;;;;;6225017;22;20210;-93
2022/04/23 01:24:06;;;;;;;24.45;16.42;;;7.60;1.00;;;;;;6158038;23;20425;-92
2022/04/23 01:31:44;;;;;;;22.08;15.50;;;7.50;1.00;;;;;;6237385;22;20473;-93
2022/04/23 01:34:16;;;;;;;23.95;17.33;;;7.50;1.00;;;;;;6227162;22;20235;-92
2022/04/23 01:36:55;;;;;;;27.00;17.90;;;7.50;1.00;;;;;;6196262;22;20186;-93
2022/04/23 01:39:34;;;;;;;23.92;17.63;;;7.40;1.00;;;;;;6232212;22;20268;-92
2022/04/23 01:42:13;;;;;;;24.63;17.50;;;7.30;1.00;;;;;;6225692;22;20208;-91
2022/04/23 01:47:17;;;;;;;26.13;18.08;;;7.30;1.00;;;;;;6255658;22;20236;-91
2022/04/23 01:52:33;;;;;;;24.85;17.00;;;7.30;1.00;;;;;;6200989;22;20232;-93
2022/04/23 01:57:46;;;;;;;25.92;17.52;;;7.30;1.00;;;;;;6212026;22;20260;-93
2022/04/23 02:08:16;;;;;;;25.33;16.58;;;7.20;1.00;;;;;;6203261;22;20196;-93
2022/04/23 02:10:45;;;;;;;24.65;16.90;;;7.20;1.00;;;;;;6202839;23;20221;-92
2022/04/23 02:13:45;;;;;;;23.42;16.33;;;7.20;1.00;;;;;;6226540;23;20209;-92
2022/04/23 02:16:25;;;;;;;26.55;17.80;;;7.20;1.00;;;;;;6192860;23;20217;-92
2022/04/23 02:18:54;;;;;;;25.23;17.70;;;7.20;1.00;;;;;;6199189;22;20223;-92
2022/04/23 02:24:45;;;;;;;25.00;15.52;;;7.30;1.00;;;;;;6262293;22;20204;-93
2022/04/23 02:27:15;;;;;;;24.17;16.58;;;7.30;1.00;;;;;;6227310;22;20236;-92
2022/04/23 02:29:46;;;;;;;23.40;16.50;;;7.30;1.00;;;;;;6230424;22;20224;-92
2022/04/23 02:32:46;;;;;;;24.63;16.40;;;7.30;1.00;;;;;;6212744;22;20205;-94
2022/04/23 02:35:24;;;;;;;24.08;15.15;;;7.30;1.00;;;;;;6212604;22;20273;-92
2022/04/23 02:37:56;;;;;;;23.77;15.38;;;7.30;1.00;;;;;;6224390;22;20246;-92
2022/04/23 02:40:36;;;;;;;24.08;15.50;;;7.30;1.00;;;;;;6243573;22;20214;-93
2022/04/23 02:43:16;;;;;;;;;;;;;;;;;;;;;
2022/04/23 02:46:06;;;;;;;;;;;;;;;;;;;;;
2022/04/23 02:54:35;;;;;;;23.80;15.90;;;7.30;1.00;;;;;;6033329;23;20251;-93
2022/04/23 02:57:13;;;;;;;24.70;16.48;;;7.20;1.00;;;;;;6215516;22;20233;-91
2022/04/23 03:00:16;;;;;;;24.10;15.77;;;7.20;1.00;;;;;;6224950;22;20190;-93
2022/04/23 03:03:05;;;;;;;23.27;15.63;;;7.20;1.00;;;;;;6213767;22;20599;-92
2022/04/23 03:08:23;;;;;;;25.38;16.02;;;7.20;1.00;;;;;;6180378;22;20386;-92
2022/04/23 03:11:26;;;;;;;25.77;17.77;;;7.20;1.00;;;;;;6134012;22;20205;-92
2022/04/23 03:13:57;;;;;;;23.77;15.65;;;7.10;1.00;;;;;;6189934;23;20208;-92
2022/04/23 03:16:45;;;;;;;25.40;16.65;;;7.10;1.00;;;;;;6169360;23;20278;-92
2022/04/23 03:19:36;;;;;;;24.77;16.50;;;7.00;1.00;;;;;;6173248;22;20214;-93
2022/04/23 03:22:15;;;;;;;23.25;16.05;;;7.00;1.00;;;;;;6165200;23;20213;-92
2022/04/23 03:24:46;;;;;;;24.50;16.60;;;6.90;1.00;;;;;;6185007;23;20228;-93
2022/04/23 03:27:15;;;;;;;24.77;16.02;;;6.90;1.00;;;;;;6199959;23;20209;-92
2022/04/23 03:29:45;;;;;;;27.23;16.58;;;6.90;1.00;;;;;;6184566;23;20194;-91
2022/04/23 03:32:16;;;;;;;26.45;18.40;;;6.90;1.00;;;;;;6203159;23;20202;-92
2022/04/23 03:40:03;;;;;;;27.20;17.27;;;6.80;1.00;;;;;;6199494;23;20209;-92
2022/04/23 03:42:48;;;;;;;24.90;17.75;;;6.80;1.00;;;;;;6162938;23;20267;-92
2022/04/23 03:45:17;;;;;;;26.15;16.27;;;6.80;1.00;;;;;;6240762;22;20288;-90
2022/04/23 03:47:57;;;;;;;26.42;17.10;;;6.80;1.00;;;;;;6206023;22;20231;-92
2022/04/23 03:50:33;;;;;;;26.13;17.23;;;6.80;1.00;;;;;;6208173;22;20194;-91
2022/04/23 03:53:25;;;;;;;26.20;17.27;;;6.80;1.00;;;;;;6200591;22;20241;-93
2022/04/23 03:59:07;;;;;;;26.95;17.13;;;6.80;1.00;;;;;;6105564;23;20267;-92
2022/04/23 22:31:27;;;;;;;22.03;18.53;;;10.50;1.00;;;;;;6257310;22;20420;-91
2022/04/23 22:41:20;;;;;;;;;;;;;;;;;;;;;
2022/04/23 23:09:08;;;;;;;14.67;11.13;;;10.10;1.00;;;;;;6139860;23;20404;-90
2022/04/23 23:18:50;;;;;;;;;;;;;;;;;;;;;
